createdAt,value
2023-01-30T00:00:43.151Z,9.53
2023-01-30T00:03:48.266Z,9.00
2023-01-30T00:06:50.970Z,9.60
2023-01-30T00:09:53.619Z,9.10
2023-01-30T00:12:55.614Z,8.87
2023-01-30T00:15:57.893Z,9.87
2023-01-30T00:18:59.882Z,10.77
2023-01-30T00:22:01.936Z,10.43
2023-01-30T00:25:04.268Z,9.73
2023-01-30T00:28:06.431Z,9.67
2023-01-30T00:31:09.552Z,10.27
2023-01-30T00:34:11.676Z,10.40
2023-01-30T00:37:14.892Z,10.63
2023-01-30T00:40:17.360Z,10.60
2023-01-30T00:43:39.703Z,9.93
2023-01-30T00:47:20.101Z,9.47
2023-01-30T00:50:22.292Z,10.00
2023-01-30T00:53:24.990Z,9.63
2023-01-30T00:56:27.226Z,8.73
2023-01-30T00:59:29.612Z,10.00
2023-01-30T01:02:32.481Z,10.00
2023-01-30T01:05:35.024Z,10.67
2023-01-30T01:08:37.135Z,11.47
2023-01-30T01:11:39.210Z,11.03
2023-01-30T01:14:41.840Z,10.57
2023-01-30T01:17:44.579Z,10.63
2023-01-30T01:20:46.834Z,10.90
2023-01-30T01:23:53.638Z,11.23
2023-01-30T01:26:56.487Z,11.10
2023-01-30T01:30:00.047Z,10.93
2023-01-30T01:33:04.246Z,9.53
2023-01-30T01:36:07.255Z,10.97
2023-01-30T01:39:09.532Z,9.37
2023-01-30T01:42:12.251Z,9.87
2023-01-30T01:45:19.094Z,10.43
2023-01-30T01:48:32.410Z,9.73
2023-01-30T01:52:03.385Z,9.77
2023-01-30T01:55:07.811Z,9.70
2023-01-30T01:58:24.796Z,9.47
2023-01-30T02:01:31.118Z,9.37
2023-01-30T02:04:53.032Z,10.27
2023-01-30T02:08:04.657Z,9.57
2023-01-30T02:11:34.852Z,9.77
2023-01-30T02:14:40.976Z,9.57
2023-01-30T02:17:43.045Z,9.37
2023-01-30T02:21:17.873Z,8.30
2023-01-30T02:24:57.224Z,9.23
2023-01-30T02:28:20.643Z,8.43
2023-01-30T02:31:31.797Z,9.70
2023-01-30T02:35:02.099Z,9.13
2023-01-30T02:38:20.105Z,8.77
2023-01-30T02:41:25.188Z,7.53
2023-01-30T02:44:37.454Z,8.13
2023-01-30T02:47:49.896Z,9.50
2023-01-30T02:51:01.639Z,9.13
2023-01-30T02:54:07.808Z,8.67
2023-01-30T02:57:21.986Z,9.03
2023-01-30T03:00:48.418Z,7.53
2023-01-30T03:04:21.143Z,7.70
2023-01-30T03:08:05.707Z,7.63
2023-01-30T03:11:09.767Z,7.83
2023-01-30T03:14:20.216Z,9.17
2023-01-30T03:17:25.248Z,7.30
2023-01-30T03:20:27.825Z,8.13
2023-01-30T03:23:29.841Z,7.20
2023-01-30T03:26:35.401Z,7.83
2023-01-30T03:29:39.493Z,8.10
2023-01-30T03:32:41.558Z,7.43
2023-01-30T03:35:43.729Z,7.73
2023-01-30T03:38:47.832Z,7.60
2023-01-30T03:41:54.334Z,7.50
2023-01-30T03:44:57.128Z,8.03
2023-01-30T03:47:59.418Z,7.10
2023-01-30T03:51:01.388Z,6.53
2023-01-30T03:54:04.467Z,8.30
2023-01-30T03:57:06.842Z,8.67
2023-01-30T04:00:10.463Z,7.70
2023-01-30T04:03:18.270Z,7.83
2023-01-30T04:06:20.388Z,7.13
2023-01-30T04:09:22.526Z,7.10
2023-01-30T04:12:27.179Z,8.43
2023-01-30T04:15:33.128Z,7.30
2023-01-30T04:19:08.663Z,7.73
2023-01-30T04:22:10.744Z,7.30
2023-01-30T04:25:13.068Z,8.17
2023-01-30T04:28:15.148Z,8.13
2023-01-30T04:31:18.574Z,8.50
2023-01-30T04:34:52.658Z,7.90
2023-01-30T04:37:54.970Z,7.93
2023-01-30T04:40:59.021Z,7.77
2023-01-30T04:44:04.423Z,7.37
2023-01-30T04:47:24.812Z,7.13
2023-01-30T04:50:27.131Z,7.17
2023-01-30T04:53:29.185Z,7.07
2023-01-30T04:56:31.293Z,11.37
2023-01-30T04:59:33.978Z,7.00
2023-01-30T05:02:39.393Z,6.77
2023-01-30T05:05:41.466Z,7.40
2023-01-30T05:08:46.761Z,5.73
2023-01-30T05:11:48.883Z,7.50
2023-01-30T05:14:51.437Z,6.13
2023-01-30T05:17:54.030Z,7.13
2023-01-30T05:21:16.665Z,6.87
2023-01-30T05:24:22.589Z,6.53
2023-01-30T05:27:26.535Z,6.17
2023-01-30T05:30:28.788Z,6.03
2023-01-30T05:33:30.933Z,6.00
2023-01-30T05:36:35.461Z,5.90
2023-01-30T05:39:37.538Z,6.33
2023-01-30T05:42:39.760Z,6.47
2023-01-30T05:45:42.069Z,6.77
2023-01-30T05:48:45.212Z,6.10
2023-01-30T05:51:49.414Z,6.70
2023-01-30T05:54:52.617Z,6.77
2023-01-30T05:57:54.689Z,6.40
2023-01-30T06:01:04.373Z,6.43
2023-01-30T06:04:07.152Z,5.20
2023-01-30T06:07:09.241Z,7.40
2023-01-30T06:10:12.225Z,6.30
2023-01-30T06:13:14.341Z,7.73
2023-01-30T06:16:19.282Z,8.23
2023-01-30T06:19:21.635Z,6.57
2023-01-30T06:22:23.900Z,7.33
2023-01-30T06:25:25.901Z,6.27
2023-01-30T06:28:28.430Z,6.50
2023-01-30T06:31:30.922Z,6.17
2023-01-30T06:34:33.089Z,6.27
2023-01-30T06:37:36.374Z,6.67
2023-01-30T06:40:39.136Z,6.43
2023-01-30T06:43:43.432Z,6.13
2023-01-30T06:46:45.460Z,6.07
2023-01-30T06:49:49.412Z,5.80
2023-01-30T06:52:56.272Z,5.87
2023-01-30T06:56:00.210Z,5.53
2023-01-30T06:59:02.294Z,5.10
2023-01-30T07:02:04.708Z,4.93
2023-01-30T07:05:08.364Z,4.90
2023-01-30T07:08:12.228Z,5.20
2023-01-30T07:11:14.544Z,5.07
2023-01-30T07:14:17.129Z,4.67
2023-01-30T07:17:22.502Z,5.07
2023-01-30T07:20:24.800Z,4.90
2023-01-30T07:23:26.790Z,4.63
2023-01-30T07:26:31.419Z,4.43
2023-01-30T07:29:34.784Z,5.27
2023-01-30T07:32:36.773Z,4.53
2023-01-30T07:35:39.790Z,4.83
2023-01-30T07:38:42.340Z,4.13
2023-01-30T07:41:44.456Z,4.10
2023-01-30T07:44:46.808Z,3.90
2023-01-30T07:47:48.840Z,4.80
2023-01-30T07:50:51.035Z,4.97
2023-01-30T07:53:53.178Z,5.27
2023-01-30T07:56:56.050Z,5.13
2023-01-30T07:59:58.095Z,6.00
2023-01-30T08:03:00.302Z,5.83
2023-01-30T08:06:03.205Z,6.03
2023-01-30T08:09:06.940Z,5.50
2023-01-30T08:12:09.170Z,6.27
2023-01-30T08:15:11.724Z,6.43
2023-01-30T08:18:17.006Z,6.47
2023-01-30T08:21:19.013Z,6.47
2023-01-30T08:24:21.096Z,5.13
2023-01-30T08:27:25.260Z,6.00
2023-01-30T08:30:31.003Z,5.43
2023-01-30T08:33:34.130Z,5.97
2023-01-30T08:36:36.644Z,5.27
2023-01-30T08:39:39.059Z,5.13
2023-01-30T08:42:44.513Z,5.37
2023-01-30T08:45:46.711Z,5.07
2023-01-30T08:48:50.355Z,5.47
2023-01-30T08:51:56.244Z,4.97
2023-01-30T08:54:58.351Z,4.77
2023-01-30T08:58:01.025Z,4.83
2023-01-30T09:01:08.995Z,4.97
2023-01-30T09:04:14.144Z,4.47
2023-01-30T09:07:17.168Z,4.47
2023-01-30T09:10:22.042Z,3.73
2023-01-30T09:13:25.102Z,3.93
2023-01-30T09:16:27.715Z,3.27
2023-01-30T09:19:30.494Z,3.83
2023-01-30T09:22:33.023Z,3.13
2023-01-30T09:25:38.204Z,3.60
2023-01-30T09:28:40.877Z,3.30
2023-01-30T09:31:43.033Z,3.50
2023-01-30T09:34:45.193Z,4.17
2023-01-30T09:37:52.425Z,3.33
2023-01-30T09:40:59.653Z,3.53
2023-01-30T09:44:31.160Z,3.53
2023-01-30T09:48:03.979Z,3.30
2023-01-30T09:51:29.453Z,3.07
2023-01-30T09:54:38.187Z,3.30
2023-01-30T09:57:42.252Z,3.30
2023-01-30T10:00:47.041Z,3.50
2023-01-30T10:04:18.962Z,3.40
2023-01-30T10:07:39.460Z,3.10
2023-01-30T10:10:55.052Z,2.87
2023-01-30T10:14:22.216Z,2.80
2023-01-30T10:17:43.733Z,2.93
2023-01-30T10:20:55.169Z,2.50
2023-01-30T10:24:11.990Z,2.57
2023-01-30T10:27:17.470Z,2.30
2023-01-30T10:30:21.485Z,2.30
2023-01-30T10:33:31.358Z,2.20
2023-01-30T10:36:41.084Z,2.20
2023-01-30T10:39:56.769Z,2.20
2023-01-30T10:43:27.142Z,2.10
2023-01-30T10:46:40.990Z,2.20
2023-01-30T10:49:47.502Z,1.93
2023-01-30T10:52:54.300Z,1.97
2023-01-30T10:56:13.215Z,1.67
2023-01-30T10:59:28.194Z,1.80
2023-01-30T11:02:51.760Z,1.73
2023-01-30T11:06:12.383Z,1.90
2023-01-30T11:09:15.342Z,1.77
2023-01-30T11:12:17.907Z,1.27
2023-01-30T11:15:25.069Z,1.20
2023-01-30T11:19:18.152Z,1.03
2023-01-30T11:22:01.706Z,1.20
2023-01-30T11:25:15.229Z,1.10
2023-01-30T11:28:19.656Z,1.10
2023-01-30T11:31:40.298Z,0.90
2023-01-30T11:34:44.755Z,1.00
2023-01-30T11:37:47.187Z,1.10
2023-01-30T11:40:49.675Z,1.00
2023-01-30T11:43:52.198Z,0.80
2023-01-30T11:46:54.559Z,1.00
2023-01-30T11:50:19.956Z,0.70
2023-01-30T11:53:34.825Z,0.77
2023-01-30T11:56:41.280Z,0.80
2023-01-30T12:00:01.449Z,0.60
2023-01-30T12:03:16.878Z,0.60
2023-01-30T12:06:35.209Z,0.70
2023-01-30T12:09:40.718Z,0.83
2023-01-30T12:12:43.598Z,0.90
2023-01-30T12:15:50.073Z,0.80
2023-01-30T12:19:20.463Z,0.70
2023-01-30T12:22:53.916Z,0.80
2023-01-30T12:26:06.653Z,0.63
2023-01-30T12:29:28.159Z,0.53
2023-01-30T12:32:33.714Z,0.60
2023-01-30T12:35:49.061Z,0.60
2023-01-30T12:39:14.086Z,0.60
2023-01-30T12:42:48.210Z,0.70
2023-01-30T12:46:13.080Z,0.70
2023-01-30T12:49:42.734Z,0.70
2023-01-30T12:53:05.815Z,0.60
2023-01-30T12:56:32.575Z,0.67
2023-01-30T13:00:13.075Z,0.80
2023-01-30T13:03:37.364Z,0.70
2023-01-30T13:07:05.324Z,1.27
2023-01-30T13:10:34.126Z,0.90
2023-01-30T13:14:05.727Z,1.30
2023-01-30T13:17:32.204Z,1.20
2023-01-30T13:20:45.435Z,1.07
2023-01-30T13:24:25.564Z,1.50
2023-01-30T13:27:29.669Z,1.97
2023-01-30T13:30:34.496Z,1.97
2023-01-30T13:33:40.807Z,1.67
2023-01-30T13:36:49.696Z,1.70
2023-01-30T13:40:13.968Z,1.77
2023-01-30T13:43:41.217Z,2.20
2023-01-30T13:46:45.312Z,2.20
2023-01-30T13:50:22.593Z,2.60
2023-01-30T13:53:38.249Z,2.30
2023-01-30T13:56:53.782Z,2.60
2023-01-30T14:00:04.893Z,2.23
2023-01-30T14:03:25.670Z,2.60
2023-01-30T14:06:39.542Z,2.97
2023-01-30T14:09:49.989Z,2.87
2023-01-30T14:12:55.985Z,3.37
2023-01-30T14:15:59.756Z,3.23
2023-01-30T14:19:34.886Z,2.90
2023-01-30T14:22:56.145Z,3.47
2023-01-30T14:25:58.685Z,3.33
2023-01-30T14:29:01.278Z,3.70
2023-01-30T14:32:23.329Z,2.80
2023-01-30T14:35:30.166Z,3.07
2023-01-30T14:38:37.828Z,3.20
2023-01-30T14:41:41.431Z,3.00
2023-01-30T14:45:15.011Z,2.90
2023-01-30T14:48:33.877Z,2.63
2023-01-30T14:51:43.649Z,2.37
2023-01-30T14:54:50.754Z,2.43
2023-01-30T14:58:02.911Z,2.63
2023-01-30T15:01:05.324Z,2.53
2023-01-30T15:04:07.390Z,2.27
2023-01-30T15:07:18.713Z,2.40
2023-01-30T15:10:51.739Z,2.20
2023-01-30T15:14:34.000Z,2.20
2023-01-30T15:18:13.451Z,2.03
2023-01-30T15:21:23.950Z,2.10
2023-01-30T15:24:38.201Z,2.43
2023-01-30T15:27:57.836Z,2.00
2023-01-30T15:31:20.585Z,2.40
2023-01-30T15:34:23.481Z,2.30
2023-01-30T15:37:59.642Z,2.13
2023-01-30T15:41:04.366Z,2.13
2023-01-30T15:44:21.835Z,2.17
2023-01-30T15:47:47.821Z,2.00
2023-01-30T15:50:56.632Z,2.30
2023-01-30T15:54:02.807Z,2.30
2023-01-30T15:57:05.203Z,2.83
2023-01-30T16:00:14.855Z,2.73
2023-01-30T16:03:41.066Z,2.40
2023-01-30T16:06:43.069Z,3.20
2023-01-30T16:10:07.397Z,2.90
2023-01-30T16:13:10.426Z,2.47
2023-01-30T16:16:19.573Z,2.97
2023-01-30T16:19:28.658Z,2.80
2023-01-30T16:22:34.930Z,2.53
2023-01-30T16:25:37.668Z,2.47
2023-01-30T16:28:42.648Z,2.30
2023-01-30T16:31:48.049Z,2.10
2023-01-30T16:34:50.510Z,1.93
2023-01-30T16:37:54.397Z,2.00
2023-01-30T16:40:58.485Z,1.80
2023-01-30T16:44:20.529Z,1.93
2023-01-30T16:47:32.000Z,1.97
2023-01-30T16:50:34.394Z,1.50
2023-01-30T16:53:36.694Z,2.33
2023-01-30T16:56:39.086Z,1.90
2023-01-30T16:59:42.748Z,2.10
2023-01-30T17:02:54.864Z,2.13
2023-01-30T17:05:58.998Z,2.37
2023-01-30T17:09:03.573Z,2.40
2023-01-30T17:12:27.511Z,2.40
2023-01-30T17:15:35.073Z,2.37
2023-01-30T17:18:41.098Z,2.30
2023-01-30T17:21:53.676Z,2.37
2023-01-30T17:25:02.094Z,2.20
2023-01-30T17:28:07.318Z,2.20
2023-01-30T17:31:17.635Z,2.23
2023-01-30T17:34:24.243Z,2.23
2023-01-30T17:37:26.896Z,2.30
2023-01-30T17:40:34.479Z,2.30
2023-01-30T17:43:40.283Z,2.50
2023-01-30T17:46:52.966Z,2.90
2023-01-30T17:49:56.125Z,2.90
2023-01-30T17:53:00.034Z,2.80
2023-01-30T17:56:02.825Z,2.43
2023-01-30T17:59:08.829Z,2.30
2023-01-30T18:02:13.813Z,2.80
2023-01-30T18:05:16.862Z,3.17
2023-01-30T18:08:20.092Z,2.90
2023-01-30T18:11:23.534Z,2.93
2023-01-30T18:14:32.902Z,2.90
2023-01-30T18:17:42.633Z,3.10
2023-01-30T18:20:49.549Z,3.37
2023-01-30T18:23:53.357Z,2.93
2023-01-30T18:27:01.509Z,3.10
2023-01-30T18:30:06.355Z,3.50
2023-01-30T18:33:09.179Z,3.57
2023-01-30T18:36:17.633Z,3.37
2023-01-30T18:39:21.289Z,3.43
2023-01-30T18:42:25.688Z,3.70
2023-01-30T18:45:31.325Z,3.60
2023-01-30T18:48:36.510Z,3.53
2023-01-30T18:51:40.988Z,3.60
2023-01-30T18:54:43.964Z,2.90
2023-01-30T18:57:46.864Z,2.90
2023-01-30T19:00:49.628Z,2.77
2023-01-30T19:04:00.600Z,3.50
2023-01-30T19:07:03.779Z,3.30
2023-01-30T19:10:08.902Z,2.93
2023-01-30T19:13:33.953Z,3.00
2023-01-30T19:16:38.951Z,2.70
2023-01-30T19:19:44.041Z,3.00
2023-01-30T19:22:49.619Z,3.13
2023-01-30T19:26:03.031Z,2.87
2023-01-30T19:29:06.941Z,3.20
2023-01-30T19:32:10.620Z,3.17
2023-01-30T19:35:13.629Z,3.30
2023-01-30T19:38:16.930Z,3.33
2023-01-30T19:41:27.187Z,3.10
2023-01-30T19:44:31.018Z,3.00
2023-01-30T19:47:35.307Z,3.20
2023-01-30T19:50:38.618Z,2.97
2023-01-30T19:53:45.008Z,3.33
2023-01-30T19:56:50.011Z,3.37
2023-01-30T19:59:53.477Z,3.37
2023-01-30T20:02:58.150Z,3.03
2023-01-30T20:06:30.239Z,3.07
2023-01-30T20:09:33.343Z,3.30
2023-01-30T20:12:36.442Z,2.93
2023-01-30T20:15:40.166Z,2.77
2023-01-30T20:18:43.301Z,3.03
2023-01-30T20:21:46.844Z,3.10
2023-01-30T20:24:50.045Z,2.93
2023-01-30T20:27:53.100Z,2.77
2023-01-30T20:30:56.289Z,2.43
2023-01-30T20:34:03.575Z,3.00
2023-01-30T20:37:06.509Z,2.70
2023-01-30T20:40:13.498Z,2.77
2023-01-30T20:43:17.735Z,2.60
2023-01-30T20:46:23.773Z,2.30
2023-01-30T20:49:27.131Z,2.80
2023-01-30T20:52:30.166Z,2.30
2023-01-30T20:55:35.069Z,2.93
2023-01-30T20:58:38.271Z,2.43
2023-01-30T21:01:41.855Z,2.93
2023-01-30T21:04:44.654Z,3.27
2023-01-30T21:07:47.515Z,3.20
2023-01-30T21:10:50.297Z,3.40
2023-01-30T21:13:52.849Z,3.50
2023-01-30T21:16:55.457Z,3.50
2023-01-30T21:20:00.335Z,3.43
2023-01-30T21:23:02.851Z,3.03
2023-01-30T21:26:10.055Z,3.00
2023-01-30T21:29:15.339Z,2.93
2023-01-30T21:32:18.238Z,3.03
2023-01-30T21:35:20.627Z,3.50
2023-01-30T21:38:41.719Z,3.33
2023-01-30T21:42:04.394Z,3.20
2023-01-30T21:45:07.433Z,2.80
2023-01-30T21:48:09.672Z,2.87
2023-01-30T21:51:12.766Z,2.83
2023-01-30T21:54:16.695Z,2.97
2023-01-30T21:57:18.684Z,2.77
2023-01-30T22:00:21.583Z,3.17
2023-01-30T22:03:27.030Z,3.40
2023-01-30T22:06:29.508Z,2.80
2023-01-30T22:09:32.333Z,2.73
2023-01-30T22:12:36.441Z,3.10
2023-01-30T22:15:38.626Z,3.30
2023-01-30T22:18:42.217Z,2.40
2023-01-30T22:21:44.345Z,3.07
2023-01-30T22:24:46.347Z,3.13
2023-01-30T22:27:48.341Z,2.83
2023-01-30T22:30:50.391Z,3.07
2023-01-30T22:33:55.131Z,3.13
2023-01-30T22:36:58.015Z,3.13
2023-01-30T22:40:00.399Z,3.10
2023-01-30T22:43:02.487Z,3.17
2023-01-30T22:46:09.859Z,3.33
2023-01-30T22:49:11.804Z,2.87
2023-01-30T22:52:13.776Z,3.10
2023-01-30T22:55:15.845Z,3.33
2023-01-30T22:58:17.927Z,2.93
2023-01-30T23:01:25.743Z,3.43
2023-01-30T23:04:28.091Z,3.00
2023-01-30T23:07:30.198Z,3.40
2023-01-30T23:10:32.228Z,3.10
2023-01-30T23:13:35.589Z,3.17
2023-01-30T23:16:40.362Z,2.60
2023-01-30T23:19:42.543Z,3.23
2023-01-30T23:22:45.130Z,2.80
2023-01-30T23:25:47.262Z,2.80
2023-01-30T23:28:49.480Z,2.40
2023-01-30T23:31:51.496Z,2.87
2023-01-30T23:34:53.578Z,3.23
2023-01-30T23:38:14.494Z,2.30
2023-01-30T23:41:22.195Z,2.67
2023-01-30T23:44:24.194Z,2.80
2023-01-30T23:47:26.259Z,2.27
2023-01-30T23:50:28.433Z,2.80
2023-01-30T23:53:30.522Z,3.20
2023-01-30T23:56:36.304Z,2.90
2023-01-30T23:59:38.946Z,2.70
